createdAt,value
2018-10-06T00:00:27.432Z,57.47
2018-10-06T00:02:56.800Z,57.83
2018-10-06T00:05:26.521Z,57.72
2018-10-06T00:07:56.285Z,57.91
2018-10-06T00:10:25.696Z,57.91
2018-10-06T00:12:58.057Z,58.34
2018-10-06T00:15:27.834Z,57.67
2018-10-06T00:18:02.463Z,57.93
2018-10-06T00:20:32.333Z,59.04
2018-10-06T00:23:03.685Z,59.14
2018-10-06T00:25:33.523Z,59.21
2018-10-06T00:28:03.365Z,59.16
2018-10-06T00:30:33.367Z,60.03
2018-10-06T00:33:04.414Z,59.91
2018-10-06T00:35:35.001Z,59.83
2018-10-06T00:38:04.825Z,59.68
2018-10-06T00:40:36.360Z,58.86
2018-10-06T00:43:12.287Z,58.69
2018-10-06T00:45:42.379Z,59.14
2018-10-06T00:48:12.247Z,58.63
2018-10-06T00:50:41.840Z,58.75
2018-10-06T00:53:11.633Z,59.86
2018-10-06T00:55:47.781Z,59.43
2018-10-06T01:01:15.557Z,59.94
2018-10-06T01:03:46.596Z,60.15
2018-10-06T01:06:16.224Z,59.10
2018-10-06T01:08:46.015Z,60.11
2018-10-06T01:11:15.614Z,60.02
2018-10-06T01:13:45.060Z,60.11
2018-10-06T01:16:15.433Z,61.17
2018-10-06T01:18:45.227Z,61.46
2018-10-06T01:21:14.779Z,61.87
2018-10-06T01:23:44.309Z,61.95
2018-10-06T01:26:14.571Z,61.93
2018-10-06T01:28:44.729Z,60.95
2018-10-06T01:31:14.937Z,60.88
2018-10-06T01:33:44.664Z,60.96
2018-10-06T01:36:14.825Z,60.47
2018-10-06T01:38:45.575Z,60.88
2018-10-06T01:41:16.426Z,61.24
2018-10-06T01:43:46.134Z,61.23
2018-10-06T01:46:16.961Z,60.35
2018-10-06T01:48:47.348Z,60.16
2018-10-06T01:51:16.926Z,60.72
2018-10-06T01:53:46.924Z,60.85
2018-10-06T01:56:16.751Z,60.99
2018-10-06T01:58:47.081Z,61.12
2018-10-06T02:01:17.902Z,61.19
2018-10-06T02:03:48.287Z,61.11
2018-10-06T02:06:19.342Z,61.11
2018-10-06T02:08:50.310Z,61.21
2018-10-06T02:11:20.085Z,61.07
2018-10-06T02:13:50.310Z,62.09
2018-10-06T02:16:20.665Z,63.14
2018-10-06T02:18:51.417Z,62.41
2018-10-06T02:21:20.847Z,62.29
2018-10-06T02:23:50.753Z,62.17
2018-10-06T02:26:20.393Z,62.47
2018-10-06T02:28:54.431Z,62.89
2018-10-06T02:31:24.430Z,62.42
2018-10-06T02:33:58.772Z,62.69
2018-10-06T02:36:30.643Z,62.72
2018-10-06T02:39:00.621Z,62.44
2018-10-06T02:41:30.325Z,62.67
2018-10-06T02:44:00.619Z,62.63
2018-10-06T02:46:30.914Z,62.38
2018-10-06T02:49:00.365Z,62.80
2018-10-06T02:51:30.060Z,62.79
2018-10-06T02:54:00.490Z,63.65
2018-10-06T02:56:30.437Z,63.93
2018-10-06T02:59:00.139Z,63.62
2018-10-06T03:01:30.396Z,63.49
2018-10-06T03:04:00.685Z,63.00
2018-10-06T03:06:30.434Z,63.34
2018-10-06T03:09:01.127Z,63.95
2018-10-06T03:11:32.094Z,63.68
2018-10-06T03:14:02.207Z,63.01
2018-10-06T03:16:32.071Z,63.14
2018-10-06T03:19:02.438Z,63.25
2018-10-06T03:21:32.361Z,63.19
2018-10-06T03:24:03.357Z,63.30
2018-10-06T03:26:33.611Z,63.28
2018-10-06T03:29:03.563Z,64.02
2018-10-06T03:31:33.679Z,63.76
2018-10-06T03:34:04.091Z,63.50
2018-10-06T03:36:34.792Z,63.40
2018-10-06T03:39:06.015Z,63.06
2018-10-06T03:41:36.043Z,63.28
2018-10-06T03:44:06.559Z,63.24
2018-10-06T03:46:36.017Z,62.39
2018-10-06T03:49:06.127Z,63.65
2018-10-06T03:51:37.297Z,63.33
2018-10-06T03:54:07.342Z,63.66
2018-10-06T03:56:38.090Z,62.89
2018-10-06T03:59:08.833Z,62.92
2018-10-06T04:01:40.192Z,62.16
2018-10-06T04:04:09.976Z,62.14
2018-10-06T04:06:39.717Z,61.86
2018-10-06T04:09:10.851Z,61.90
2018-10-06T04:11:41.329Z,62.24
2018-10-06T04:14:10.815Z,62.66
2018-10-06T04:16:41.733Z,61.97
2018-10-06T04:19:11.551Z,62.02
2018-10-06T04:21:46.382Z,61.82
2018-10-06T04:24:17.845Z,62.21
2018-10-06T04:26:47.835Z,62.31
2018-10-06T04:29:18.185Z,62.57
2018-10-06T04:31:49.607Z,62.67
2018-10-06T04:34:19.472Z,61.96
2018-10-06T04:36:50.137Z,61.59
2018-10-06T04:39:20.035Z,62.62
2018-10-06T04:41:50.331Z,61.99
2018-10-06T04:44:19.751Z,61.82
2018-10-06T04:46:50.581Z,61.75
2018-10-06T04:49:21.866Z,62.38
2018-10-06T04:51:53.005Z,62.71
2018-10-06T04:54:23.057Z,63.24
2018-10-06T04:56:52.603Z,62.77
2018-10-06T04:59:22.025Z,64.25
2018-10-06T05:01:52.442Z,63.72
2018-10-06T05:04:22.091Z,64.11
2018-10-06T05:06:51.766Z,62.94
2018-10-06T05:09:22.507Z,62.68
2018-10-06T05:11:53.320Z,62.55
2018-10-06T05:14:23.351Z,63.13
2018-10-06T05:16:53.277Z,62.41
2018-10-06T05:19:22.720Z,62.55
2018-10-06T05:21:53.422Z,62.66
2018-10-06T05:24:23.487Z,63.02
2018-10-06T05:26:53.828Z,63.04
2018-10-06T05:29:24.035Z,63.05
2018-10-06T05:31:54.423Z,63.61
2018-10-06T05:34:24.136Z,63.17
2018-10-06T05:36:54.929Z,63.30
2018-10-06T05:39:25.493Z,63.63
2018-10-06T05:41:55.644Z,64.27
2018-10-06T05:44:25.628Z,64.29
2018-10-06T05:46:56.062Z,64.37
2018-10-06T05:49:25.563Z,63.95
2018-10-06T05:52:11.654Z,64.87
2018-10-06T05:54:42.049Z,65.08
2018-10-06T05:57:13.076Z,65.26
2018-10-06T06:02:23.381Z,64.50
2018-10-06T06:04:53.894Z,64.00
2018-10-06T06:07:26.735Z,63.48
2018-10-06T06:09:56.341Z,63.86
2018-10-06T06:12:25.973Z,63.42
2018-10-06T06:14:55.746Z,64.16
2018-10-06T06:17:25.516Z,63.70
2018-10-06T06:20:04.184Z,63.88
2018-10-06T06:22:33.919Z,63.20
2018-10-06T06:25:03.322Z,63.30
2018-10-06T06:27:34.965Z,63.33
2018-10-06T06:30:07.223Z,63.90
2018-10-06T06:32:37.111Z,63.54
2018-10-06T06:35:09.453Z,63.56
2018-10-06T06:37:43.076Z,63.21
2018-10-06T06:40:12.894Z,62.56
2018-10-06T06:42:45.577Z,63.15
2018-10-06T06:45:18.518Z,62.37
2018-10-06T06:47:49.625Z,62.76
2018-10-06T06:50:19.534Z,62.91
2018-10-06T06:55:25.490Z,62.00
2018-10-06T06:57:58.578Z,62.56
2018-10-06T07:00:30.205Z,61.41
2018-10-06T07:03:00.680Z,60.29
2018-10-06T07:05:37.286Z,60.58
2018-10-06T07:08:07.901Z,59.95
2018-10-06T07:10:43.250Z,59.88
2018-10-06T07:13:15.136Z,58.27
2018-10-06T07:15:48.923Z,58.73
2018-10-06T07:18:19.907Z,58.20
2018-10-06T07:20:59.309Z,56.89
2018-10-06T07:23:31.936Z,55.57
2018-10-06T07:26:02.748Z,55.03
2018-10-06T07:28:37.648Z,53.66
2018-10-06T07:31:20.483Z,53.06
2018-10-06T07:33:53.308Z,52.81
2018-10-06T07:36:43.567Z,51.89
2018-10-06T07:39:24.608Z,52.65
2018-10-06T07:41:58.739Z,52.43
2018-10-06T07:44:36.411Z,51.55
2018-10-06T07:47:09.084Z,52.03
2018-10-06T07:49:42.354Z,51.04
2018-10-06T07:52:16.560Z,49.51
2018-10-06T07:54:48.946Z,50.22
2018-10-06T07:57:19.767Z,48.58
2018-10-06T07:59:51.657Z,49.88
2018-10-06T08:02:28.656Z,49.80
2018-10-06T08:05:14.983Z,49.03
2018-10-06T08:07:51.648Z,48.90
2018-10-06T08:10:31.710Z,48.43
2018-10-06T08:13:02.458Z,48.26
2018-10-06T08:15:35.104Z,47.56
2018-10-06T08:18:11.253Z,48.45
2018-10-06T08:20:47.349Z,47.57
2018-10-06T08:23:17.710Z,46.50
2018-10-06T08:25:50.302Z,46.43
2018-10-06T08:28:23.004Z,45.52
2018-10-06T08:31:03.975Z,44.91
2018-10-06T08:33:37.568Z,45.16
2018-10-06T08:36:20.756Z,45.48
2018-10-06T08:38:52.133Z,45.72
2018-10-06T08:41:23.518Z,44.75
2018-10-06T08:43:56.267Z,45.23
2018-10-06T08:46:25.960Z,44.46
2018-10-06T08:48:56.807Z,43.47
2018-10-06T08:51:27.789Z,42.63
2018-10-06T08:54:00.166Z,41.80
2018-10-06T08:56:30.811Z,41.37
2018-10-06T08:59:10.316Z,40.54
2018-10-06T09:01:42.236Z,40.34
2018-10-06T09:04:18.730Z,38.80
2018-10-06T09:06:54.437Z,39.09
2018-10-06T09:09:26.536Z,37.61
2018-10-06T09:11:57.324Z,38.42
2018-10-06T09:14:28.701Z,37.13
2018-10-06T09:16:59.816Z,37.50
2018-10-06T09:19:30.671Z,35.57
2018-10-06T09:22:01.481Z,38.26
2018-10-06T09:24:36.406Z,38.31
2018-10-06T09:27:06.625Z,38.54
2018-10-06T09:29:41.650Z,39.67
2018-10-06T09:32:15.718Z,39.36
2018-10-06T09:34:46.657Z,40.50
2018-10-06T09:37:19.447Z,40.77
2018-10-06T09:39:49.952Z,41.45
2018-10-06T09:42:22.210Z,40.72
2018-10-06T09:44:53.570Z,39.88
2018-10-06T09:47:24.688Z,40.01
2018-10-06T09:52:31.543Z,39.52
2018-10-06T09:55:03.570Z,36.73
2018-10-06T09:57:42.729Z,39.17
2018-10-06T10:00:29.585Z,37.33
2018-10-06T10:03:07.268Z,34.87
2018-10-06T10:05:42.267Z,34.98
2018-10-06T10:08:16.664Z,34.83
2018-10-06T10:10:52.947Z,35.74
2018-10-06T10:13:25.905Z,35.92
2018-10-06T10:15:57.566Z,34.06
2018-10-06T10:18:39.379Z,33.71
2018-10-06T10:21:09.018Z,34.77
2018-10-06T10:23:41.654Z,32.73
2018-10-06T10:26:17.824Z,32.30
2018-10-06T10:28:49.363Z,32.04
2018-10-06T10:31:19.366Z,31.49
2018-10-06T10:33:52.809Z,31.35
2018-10-06T10:36:28.854Z,33.32
2018-10-06T10:39:01.048Z,32.83
2018-10-06T10:41:35.036Z,32.02
2018-10-06T10:44:13.851Z,32.87
2018-10-06T10:47:01.536Z,31.33
2018-10-06T10:49:32.368Z,30.29
2018-10-06T10:52:02.649Z,30.34
2018-10-06T10:54:33.402Z,29.42
2018-10-06T10:57:04.131Z,29.28
2018-10-06T10:59:34.634Z,29.79
2018-10-06T11:02:12.017Z,29.92
2018-10-06T11:04:46.432Z,29.78
2018-10-06T11:07:18.301Z,28.72
2018-10-06T11:09:48.505Z,29.26
2018-10-06T11:12:21.803Z,28.26
2018-10-06T11:14:52.042Z,30.03
2018-10-06T11:17:42.632Z,31.27
2018-10-06T11:20:19.085Z,30.68
2018-10-06T11:22:55.471Z,29.49
2018-10-06T11:25:44.338Z,28.66
2018-10-06T11:28:18.839Z,28.74
2018-10-06T11:30:53.136Z,27.62
2018-10-06T11:33:25.249Z,28.30
2018-10-06T11:38:47.291Z,29.08
2018-10-06T11:41:29.911Z,29.33
2018-10-06T11:44:01.000Z,28.98
2018-10-06T11:46:33.258Z,29.13
2018-10-06T11:49:05.346Z,28.35
2018-10-06T11:51:37.183Z,27.19
2018-10-06T11:54:11.987Z,29.03
2018-10-06T11:56:43.398Z,29.42
2018-10-06T11:59:16.653Z,30.15
2018-10-06T12:01:46.409Z,30.84
2018-10-06T12:04:17.205Z,30.65
2018-10-06T12:06:50.089Z,30.01
2018-10-06T12:09:21.132Z,28.32
2018-10-06T12:11:51.259Z,29.20
2018-10-06T12:14:28.506Z,30.95
2018-10-06T12:17:00.105Z,30.42
2018-10-06T12:19:32.146Z,29.97
2018-10-06T12:22:03.748Z,29.59
2018-10-06T12:24:35.714Z,29.02
2018-10-06T12:27:06.469Z,29.04
2018-10-06T12:29:35.905Z,28.31
2018-10-06T12:32:07.181Z,28.50
2018-10-06T12:34:45.758Z,28.37
2018-10-06T12:37:19.530Z,29.08
2018-10-06T12:39:50.000Z,28.42
2018-10-06T12:42:19.931Z,29.22
2018-10-06T12:44:50.341Z,28.61
2018-10-06T12:47:22.015Z,28.93
2018-10-06T12:49:53.339Z,29.08
2018-10-06T12:52:24.460Z,28.97
2018-10-06T12:54:58.059Z,28.90
2018-10-06T12:57:31.392Z,28.85
2018-10-06T13:00:01.363Z,29.61
2018-10-06T13:02:34.083Z,29.76
2018-10-06T13:05:03.971Z,29.63
2018-10-06T13:07:34.200Z,29.48
2018-10-06T13:10:05.643Z,29.37
2018-10-06T13:12:36.922Z,30.33
2018-10-06T13:15:09.077Z,29.56
2018-10-06T13:17:39.301Z,29.40
2018-10-06T13:20:08.903Z,28.33
2018-10-06T13:22:38.902Z,29.16
2018-10-06T13:25:09.436Z,29.39
2018-10-06T13:27:38.765Z,28.82
2018-10-06T13:30:27.672Z,29.40
2018-10-06T13:33:00.465Z,30.38
2018-10-06T13:35:34.797Z,29.36
2018-10-06T13:38:07.091Z,29.84
2018-10-06T13:40:38.744Z,29.31
2018-10-06T13:43:09.315Z,29.81
2018-10-06T13:45:39.385Z,29.95
2018-10-06T13:48:10.283Z,30.06
2018-10-06T13:50:40.897Z,29.87
2018-10-06T13:53:10.800Z,30.42
2018-10-06T13:55:42.018Z,29.55
2018-10-06T13:58:19.916Z,29.90
2018-10-06T14:00:50.740Z,29.74
2018-10-06T14:03:22.246Z,29.66
2018-10-06T14:05:54.516Z,29.75
2018-10-06T14:08:27.679Z,29.90
2018-10-06T14:11:07.804Z,30.39
2018-10-06T14:13:38.056Z,31.11
2018-10-06T14:16:12.128Z,30.11
2018-10-06T14:18:53.735Z,30.46
2018-10-06T14:21:37.695Z,30.17
2018-10-06T14:24:14.240Z,30.27
2018-10-06T14:26:46.090Z,31.05
2018-10-06T14:29:16.690Z,30.90
2018-10-06T14:31:48.283Z,30.72
2018-10-06T14:34:20.200Z,31.05
2018-10-06T14:36:51.646Z,30.59
2018-10-06T14:39:22.641Z,31.21
2018-10-06T14:41:58.202Z,31.12
2018-10-06T14:44:28.606Z,30.81
2018-10-06T14:47:02.102Z,31.58
2018-10-06T14:49:33.343Z,31.71
2018-10-06T14:52:11.286Z,31.30
2018-10-06T14:54:41.725Z,32.04
2018-10-06T14:57:11.624Z,31.32
2018-10-06T14:59:43.429Z,31.89
2018-10-06T15:02:30.792Z,31.47
2018-10-06T15:05:05.264Z,32.19
2018-10-06T15:07:38.558Z,32.00
2018-10-06T15:10:12.236Z,31.76
2018-10-06T15:12:42.645Z,31.18
2018-10-06T15:15:16.666Z,31.91
2018-10-06T15:17:53.334Z,31.12
2018-10-06T15:20:25.984Z,31.72
2018-10-06T15:22:56.590Z,31.12
2018-10-06T15:31:23.302Z,32.15
2018-10-06T15:33:57.475Z,32.21
2018-10-06T15:36:47.011Z,32.18
2018-10-06T15:39:23.256Z,31.42
2018-10-06T15:44:55.413Z,31.47
2018-10-06T15:47:37.211Z,31.85
2018-10-06T15:50:25.492Z,31.97
2018-10-06T15:53:08.606Z,32.53
2018-10-06T15:56:00.291Z,32.46
2018-10-06T15:58:45.098Z,32.67
2018-10-06T16:01:25.670Z,33.21
2018-10-06T16:03:59.802Z,33.09
2018-10-06T16:06:42.876Z,33.91
2018-10-06T16:09:14.157Z,33.19
2018-10-06T16:11:44.311Z,33.54
2018-10-06T16:14:18.142Z,33.23
2018-10-06T16:17:00.154Z,33.49
2018-10-06T16:20:32.820Z,33.32
2018-10-06T16:23:04.507Z,33.95
2018-10-06T16:25:36.808Z,33.61
2018-10-06T16:28:06.263Z,34.06
2018-10-06T16:30:41.041Z,33.77
2018-10-06T16:33:11.315Z,33.83
2018-10-06T16:35:42.203Z,34.10
2018-10-06T16:38:16.278Z,35.06
2018-10-06T16:40:48.526Z,34.52
2018-10-06T16:43:21.825Z,34.31
2018-10-06T16:45:57.811Z,34.96
2018-10-06T16:48:28.101Z,35.42
2018-10-06T16:50:58.811Z,35.52
2018-10-06T16:53:31.376Z,35.83
2018-10-06T16:56:04.902Z,35.29
2018-10-06T16:58:36.636Z,35.40
2018-10-06T17:01:06.746Z,35.76
2018-10-06T17:03:36.679Z,35.95
2018-10-06T17:09:00.614Z,36.64
2018-10-06T17:11:34.188Z,36.63
2018-10-06T17:14:06.974Z,37.06
2018-10-06T17:16:38.672Z,37.64
2018-10-06T17:19:16.997Z,37.29
2018-10-06T17:21:51.534Z,37.68
2018-10-06T17:24:27.185Z,37.45
2018-10-06T17:26:57.528Z,37.19
2018-10-06T17:29:36.412Z,38.25
2018-10-06T17:32:08.575Z,37.95
2018-10-06T17:34:38.431Z,38.41
2018-10-06T17:37:09.248Z,37.29
2018-10-06T17:39:41.738Z,38.43
2018-10-06T17:42:11.669Z,37.25
2018-10-06T17:44:50.827Z,37.67
2018-10-06T17:47:22.420Z,37.97
2018-10-06T17:49:54.623Z,38.66
2018-10-06T17:52:32.181Z,38.78
2018-10-06T17:55:03.664Z,37.85
2018-10-06T17:57:34.347Z,37.93
2018-10-06T18:02:46.748Z,39.02
2018-10-06T18:05:22.164Z,38.92
2018-10-06T18:07:53.614Z,38.43
2018-10-06T18:10:30.681Z,38.46
2018-10-06T18:13:01.826Z,39.33
2018-10-06T18:15:32.756Z,39.17
2018-10-06T18:18:14.710Z,38.65
2018-10-06T18:20:44.439Z,39.09
2018-10-06T18:23:14.915Z,39.80
2018-10-06T18:25:46.283Z,39.71
2018-10-06T18:28:16.893Z,38.91
2018-10-06T18:30:50.561Z,39.63
2018-10-06T18:33:20.206Z,39.83
2018-10-06T18:35:50.377Z,40.21
2018-10-06T18:38:20.308Z,40.28
2018-10-06T18:40:50.346Z,40.63
2018-10-06T18:43:20.622Z,40.68
2018-10-06T18:45:54.073Z,41.08
2018-10-06T18:48:37.696Z,41.12
2018-10-06T18:51:08.718Z,42.07
2018-10-06T18:53:54.831Z,42.91
2018-10-06T18:56:46.056Z,43.26
2018-10-06T18:59:20.351Z,43.36
2018-10-06T19:01:52.059Z,43.07
2018-10-06T19:04:26.284Z,43.79
2018-10-06T19:06:56.530Z,43.83
2018-10-06T19:09:29.847Z,44.52
2018-10-06T19:12:06.775Z,45.44
2018-10-06T19:14:38.730Z,46.16
2018-10-06T19:17:12.055Z,48.04
2018-10-06T19:19:42.712Z,48.85
2018-10-06T19:22:14.804Z,48.86
2018-10-06T19:24:47.407Z,49.08
2018-10-06T19:27:18.372Z,50.00
2018-10-06T19:29:47.888Z,50.24
2018-10-06T19:32:17.623Z,50.83
2018-10-06T19:34:52.054Z,50.28
2018-10-06T19:37:22.664Z,50.66
2018-10-06T19:39:58.475Z,51.83
2018-10-06T19:42:40.077Z,51.49
2018-10-06T19:45:20.577Z,51.54
2018-10-06T19:47:55.089Z,51.45
2018-10-06T19:53:10.245Z,50.37
2018-10-06T19:55:41.802Z,49.85
2018-10-06T19:58:14.138Z,50.29
2018-10-06T20:00:49.481Z,50.65
2018-10-06T20:06:39.805Z,51.67
2018-10-06T20:09:14.144Z,51.83
2018-10-06T20:11:55.363Z,51.86
2018-10-06T20:14:27.300Z,51.55
2018-10-06T20:16:58.014Z,51.37
2018-10-06T20:19:33.743Z,50.65
2018-10-06T20:22:08.092Z,50.72
2018-10-06T20:24:43.629Z,51.10
2018-10-06T20:27:21.803Z,52.36
2018-10-06T20:29:55.359Z,52.88
2018-10-06T20:32:28.055Z,52.81
2018-10-06T20:35:00.285Z,53.44
2018-10-06T20:37:31.301Z,52.81
2018-10-06T20:40:02.499Z,51.93
2018-10-06T20:42:34.624Z,53.44
2018-10-06T20:45:07.279Z,53.21
2018-10-06T20:47:38.320Z,54.35
2018-10-06T20:50:10.405Z,53.60
2018-10-06T20:52:40.713Z,52.39
2018-10-06T20:55:11.568Z,52.29
2018-10-06T20:57:42.769Z,53.04
2018-10-06T21:00:17.623Z,53.68
2018-10-06T21:02:48.604Z,54.08
2018-10-06T21:05:18.341Z,55.26
2018-10-06T21:07:48.495Z,54.33
2018-10-06T21:10:20.338Z,54.68
2018-10-06T21:12:52.895Z,54.47
2018-10-06T21:15:27.378Z,54.75
2018-10-06T21:18:02.284Z,55.32
2018-10-06T21:20:33.895Z,54.49
2018-10-06T21:23:07.514Z,54.82
2018-10-06T21:25:37.123Z,54.74
2018-10-06T21:28:08.562Z,54.39
2018-10-06T21:30:41.889Z,54.90
2018-10-06T21:33:19.562Z,54.12
2018-10-06T21:38:51.826Z,54.28
2018-10-06T21:41:42.223Z,54.70
2018-10-06T21:44:14.275Z,54.66
2018-10-06T21:46:45.786Z,55.22
2018-10-06T21:49:20.394Z,55.21
2018-10-06T21:51:56.013Z,55.09
2018-10-06T21:54:29.908Z,54.62
2018-10-06T21:57:00.759Z,54.93
2018-10-06T21:59:30.441Z,56.20
2018-10-06T22:02:01.047Z,57.09
2018-10-06T22:04:32.423Z,57.08
2018-10-06T22:07:03.799Z,57.15
2018-10-06T22:09:34.798Z,57.72
2018-10-06T22:12:10.148Z,57.61
2018-10-06T22:14:40.557Z,58.38
2018-10-06T22:17:11.183Z,58.43
2018-10-06T22:19:41.390Z,58.87
2018-10-06T22:22:14.753Z,57.98
2018-10-06T22:24:45.293Z,58.34
2018-10-06T22:27:14.661Z,58.89
2018-10-06T22:29:45.092Z,59.25
2018-10-06T22:32:15.660Z,60.33
2018-10-06T22:34:45.438Z,60.12
2018-10-06T22:37:15.090Z,60.34
2018-10-06T22:39:45.715Z,60.37
2018-10-06T22:42:16.360Z,60.47
2018-10-06T22:44:45.908Z,60.38
2018-10-06T22:47:19.470Z,60.94
2018-10-06T22:49:48.949Z,60.67
2018-10-06T22:52:18.497Z,60.84
2018-10-06T22:54:49.656Z,60.86
2018-10-06T22:57:20.295Z,61.48
2018-10-06T22:59:52.903Z,60.95
2018-10-06T23:02:22.405Z,61.08
2018-10-06T23:04:54.079Z,60.73
2018-10-06T23:07:24.602Z,61.51
2018-10-06T23:09:54.881Z,60.88
2018-10-06T23:12:25.723Z,60.95
2018-10-06T23:14:57.884Z,60.79
2018-10-06T23:17:30.711Z,60.53
2018-10-06T23:20:00.222Z,60.39
2018-10-06T23:22:29.731Z,60.41
2018-10-06T23:25:01.615Z,60.00
2018-10-06T23:27:31.937Z,60.39
2018-10-06T23:30:04.444Z,60.16
2018-10-06T23:32:36.863Z,60.79
2018-10-06T23:35:08.588Z,59.78
2018-10-06T23:37:38.497Z,59.56
2018-10-06T23:40:13.272Z,59.51
2018-10-06T23:42:44.318Z,59.59
2018-10-06T23:45:19.021Z,58.74
2018-10-06T23:47:49.368Z,58.71
2018-10-06T23:50:19.608Z,58.98
2018-10-06T23:52:50.181Z,59.16
2018-10-06T23:55:21.453Z,58.31
2018-10-06T23:57:51.335Z,58.89
